Jacob Lake, Arizona
Current Conditions -  °F | °C
As of 1:15 PM on Friday 24 Oct 2014 (Local Time) from KAZC Reporting Station
Clear Clear  
Wind Chill: 78°   Ceiling: Unl
Heat Index: 78°   Visibility: 10mi
Dew Point: 36°   Wind: 3mph
Humidity: 22%   Direction: 100°E
Pressure: 30.25"   Gusts: NA
Location:  36.9484°N, 112.529°W
Report Text: KAZC 242015Z AUTO 10003KT 10SM CLR 26/02 A3025 RMK AO2 T02580023
Loading
Personal Weather Stations






























Interactive Weather Map New forecast layout! Learn more

10-Day Weather Forecast

Advertisements
Track Severe Weather on mobile